Time;durP1;ratioP1;P1;durP2;ratioP2;P2;SDS_P1;SDS_P2;PMS_P1;PMS_P2;Temp;Humidity;BMP_temperature;BMP_pressure;BME280_temperature;BME280_humidity;BME280_pressure;Samples;Min_cycle;Max_cycle;Signal;HPM_P1;HPM_P2
2023/12/18 00:00:22;;;;;;;11.30;10.90;;;0.50;99.90;;;;;;5045792;28;20254;-81
2023/12/18 00:02:49;;;;;;;11.03;10.63;;;0.40;99.90;;;;;;5046015;28;20282;-81
2023/12/18 00:05:19;;;;;;;11.30;10.90;;;0.50;99.90;;;;;;5045520;28;20235;-81
2023/12/18 00:07:46;;;;;;;11.20;10.80;;;0.50;99.90;;;;;;5044693;28;20235;-81
2023/12/18 00:10:13;;;;;;;11.50;11.10;;;0.50;99.90;;;;;;5045648;28;20251;-81
2023/12/18 00:12:41;;;;;;;11.50;11.10;;;0.50;99.90;;;;;;5047232;28;20243;-81
2023/12/18 00:15:09;;;;;;;11.10;10.70;;;0.50;99.90;;;;;;5046919;28;20289;-81
2023/12/18 00:17:36;;;;;;;11.20;10.80;;;0.50;99.90;;;;;;5045177;28;20228;-81
2023/12/18 00:20:05;;;;;;;11.20;10.80;;;0.50;99.90;;;;;;5045508;28;20235;-82
2023/12/18 00:22:33;;;;;;;11.40;11.00;;;0.50;99.90;;;;;;5045313;28;20227;-82
2023/12/18 00:25:00;;;;;;;11.27;10.87;;;0.50;99.90;;;;;;5044837;28;20294;-82
2023/12/18 00:27:28;;;;;;;11.57;11.17;;;0.50;99.90;;;;;;5043766;28;20244;-82
2023/12/18 00:29:55;;;;;;;11.50;11.10;;;0.50;99.90;;;;;;5044451;28;20286;-82
2023/12/18 00:32:23;;;;;;;11.20;10.80;;;0.50;99.90;;;;;;5043312;28;20239;-82
2023/12/18 00:34:50;;;;;;;11.20;10.80;;;0.50;99.90;;;;;;5043582;28;20224;-82
2023/12/18 00:37:17;;;;;;;11.23;10.83;;;0.50;99.90;;;;;;5043611;28;20219;-82
2023/12/18 00:39:46;;;;;;;11.03;10.63;;;0.40;99.90;;;;;;5044501;28;20232;-82
2023/12/18 00:42:13;;;;;;;11.50;11.10;;;0.40;99.90;;;;;;5042799;28;20231;-82
2023/12/18 00:44:41;;;;;;;11.20;10.80;;;0.40;99.90;;;;;;5043662;28;20258;-83
2023/12/18 00:47:08;;;;;;;11.33;10.93;;;0.40;99.90;;;;;;5043988;28;20321;-81
2023/12/18 00:49:35;;;;;;;11.47;11.07;;;0.30;99.90;;;;;;5050495;28;20235;-82
2023/12/18 00:52:02;;;;;;;11.37;10.97;;;0.30;99.90;;;;;;5063441;28;20234;-84
2023/12/18 00:54:30;;;;;;;11.50;11.10;;;0.30;99.90;;;;;;5065543;28;20235;-82
2023/12/18 00:56:58;;;;;;;11.53;11.13;;;0.30;99.90;;;;;;5068037;28;20339;-82
2023/12/18 00:59:25;;;;;;;11.37;10.97;;;0.30;99.90;;;;;;5066920;28;20231;-82
2023/12/18 01:01:53;;;;;;;11.40;11.00;;;0.20;99.90;;;;;;5062725;28;20238;-82
2023/12/18 01:04:20;;;;;;;11.40;11.00;;;0.20;99.90;;;;;;5062407;28;20250;-82
2023/12/18 01:06:47;;;;;;;11.40;11.00;;;0.20;99.90;;;;;;5061599;28;20235;-82
2023/12/18 01:09:14;;;;;;;11.47;11.07;;;0.30;99.90;;;;;;5062163;28;20227;-82
2023/12/18 01:11:42;;;;;;;11.23;10.83;;;0.20;99.90;;;;;;5061700;28;20293;-82
2023/12/18 01:14:17;;;;;;;11.20;10.80;;;0.20;99.90;;;;;;5063701;28;20248;-82
2023/12/18 01:16:44;;;;;;;11.37;10.97;;;0.20;99.90;;;;;;5063257;28;20244;-82
2023/12/18 01:19:11;;;;;;;11.60;11.20;;;0.20;99.90;;;;;;5063441;28;20235;-82
2023/12/18 01:21:39;;;;;;;11.03;10.63;;;0.20;99.90;;;;;;5063776;28;20234;-81
2023/12/18 01:24:07;;;;;;;11.53;11.13;;;0.20;99.90;;;;;;5062820;28;20254;-82
2023/12/18 01:26:37;;;;;;;11.60;11.20;;;0.20;99.90;;;;;;5062809;28;20317;-84
2023/12/18 01:29:04;;;;;;;11.37;10.97;;;0.10;99.90;;;;;;5061897;28;20235;-82
2023/12/18 01:31:33;;;;;;;11.43;11.03;;;0.10;99.90;;;;;;5062058;28;20270;-82
2023/12/18 01:34:00;;;;;;;11.27;10.87;;;0.10;99.90;;;;;;5061743;28;20218;-82
2023/12/18 01:36:28;;;;;;;11.60;11.20;;;0.10;99.90;;;;;;5061497;28;20281;-82
2023/12/18 01:38:55;;;;;;;11.30;10.90;;;0.10;99.90;;;;;;5061792;28;20234;-82
2023/12/18 01:41:23;;;;;;;11.30;10.90;;;0.00;99.90;;;;;;5062377;28;20244;-82
2023/12/18 01:43:50;;;;;;;11.23;10.83;;;0.00;99.90;;;;;;5061863;28;20234;-82
2023/12/18 01:46:22;;;;;;;11.27;10.87;;;0.00;99.90;;;;;;5061548;28;20223;-82
2023/12/18 01:48:51;;;;;;;11.30;10.90;;;0.10;99.90;;;;;;5061768;28;21114;-82
2023/12/18 01:51:18;;;;;;;11.27;10.87;;;0.10;99.90;;;;;;5061502;28;20257;-82
2023/12/18 01:53:50;;;;;;;11.30;10.90;;;0.10;99.90;;;;;;5061855;28;20223;-82
2023/12/18 01:56:22;;;;;;;11.20;10.80;;;0.10;99.90;;;;;;5061986;28;20249;-83
2023/12/18 01:58:50;;;;;;;11.10;10.70;;;0.10;99.90;;;;;;5044852;28;20227;-83
2023/12/18 02:01:18;;;;;;;11.10;10.70;;;0.20;99.90;;;;;;5041684;28;20231;-81
2023/12/18 02:03:46;;;;;;;11.10;10.70;;;0.20;99.90;;;;;;5041532;28;20266;-80
2023/12/18 02:06:16;;;;;;;11.30;10.90;;;0.20;99.90;;;;;;5049810;28;20234;-80
2023/12/18 02:08:47;;;;;;;11.33;10.93;;;0.20;99.90;;;;;;5040826;28;20239;-81
2023/12/18 02:11:14;;;;;;;11.30;10.90;;;0.10;99.90;;;;;;5042043;28;20283;-81
2023/12/18 02:13:42;;;;;;;10.83;10.47;;;0.10;99.90;;;;;;5041488;28;20239;-82
2023/12/18 02:16:10;;;;;;;11.13;10.73;;;0.00;99.90;;;;;;5041612;28;20227;-81
2023/12/18 02:18:44;;;;;;;11.17;10.77;;;0.00;99.90;;;;;;5041612;28;20235;-82
2023/12/18 02:21:11;;;;;;;11.60;11.20;;;0.00;99.90;;;;;;5042598;28;20239;-82
2023/12/18 02:23:39;;;;;;;11.57;11.17;;;0.00;99.90;;;;;;5041687;28;20239;-82
2023/12/18 02:26:07;;;;;;;11.30;10.90;;;-0.10;99.90;;;;;;5041947;28;20227;-82
2023/12/18 02:28:34;;;;;;;11.40;11.00;;;-0.10;99.90;;;;;;5042844;28;20246;-82
2023/12/18 02:31:05;;;;;;;11.50;11.10;;;-0.10;99.90;;;;;;5043310;28;20239;-82
2023/12/18 02:33:33;;;;;;;11.50;11.10;;;-0.10;99.90;;;;;;5043719;28;20232;-82
2023/12/18 02:36:03;;;;;;;11.50;11.10;;;-0.10;99.90;;;;;;5043761;28;20212;-82
2023/12/18 02:38:30;;;;;;;11.40;11.00;;;-0.10;99.90;;;;;;5044344;28;20247;-82
2023/12/18 02:40:58;;;;;;;11.20;10.80;;;-0.20;99.90;;;;;;5042933;28;20235;-82
2023/12/18 02:43:26;;;;;;;11.57;11.17;;;-0.20;99.90;;;;;;5042402;28;20235;-81
2023/12/18 02:45:53;;;;;;;11.23;10.83;;;-0.10;99.90;;;;;;5042273;28;20218;-82
2023/12/18 02:48:20;;;;;;;11.23;10.83;;;-0.10;99.90;;;;;;5045488;28;20236;-82
2023/12/18 02:50:47;;;;;;;11.17;10.77;;;-0.20;99.90;;;;;;5053637;28;20219;-80
2023/12/18 02:53:15;;;;;;;11.27;10.87;;;-0.10;99.90;;;;;;5058531;28;20223;-80
2023/12/18 02:55:48;;;;;;;11.20;10.80;;;-0.10;99.90;;;;;;5055969;28;20224;-83
2023/12/18 02:58:18;;;;;;;11.03;10.63;;;-0.10;99.90;;;;;;5047981;28;20231;-83
2023/12/18 03:00:45;;;;;;;11.10;10.70;;;0.00;99.90;;;;;;5044065;28;20266;-83
2023/12/18 03:03:12;;;;;;;11.13;10.73;;;0.00;99.90;;;;;;5043752;28;20240;-82
2023/12/18 03:05:40;;;;;;;11.00;10.60;;;-0.10;99.90;;;;;;5044809;28;20235;-82
2023/12/18 03:08:07;;;;;;;11.03;10.63;;;-0.10;99.90;;;;;;5046085;28;20246;-82
2023/12/18 03:10:35;;;;;;;11.30;10.90;;;-0.10;99.90;;;;;;5045367;28;20228;-82
2023/12/18 03:13:02;;;;;;;11.33;10.93;;;-0.20;99.90;;;;;;5045090;28;20235;-82
2023/12/18 03:15:32;;;;;;;11.40;11.00;;;-0.20;99.90;;;;;;5045864;28;20368;-83
2023/12/18 03:17:59;;;;;;;11.53;11.13;;;-0.20;99.90;;;;;;5045619;28;20239;-82
2023/12/18 03:20:26;;;;;;;11.40;11.00;;;-0.20;99.90;;;;;;5053928;28;20228;-83
2023/12/18 03:22:53;;;;;;;11.50;11.10;;;-0.20;99.90;;;;;;5046587;28;20236;-82
2023/12/18 03:25:21;;;;;;;11.33;10.93;;;-0.20;99.90;;;;;;5046929;28;20231;-81
2023/12/18 03:27:48;;;;;;;11.27;10.87;;;-0.30;99.90;;;;;;5045625;28;20240;-80
2023/12/18 03:30:17;;;;;;;11.20;10.80;;;-0.30;99.90;;;;;;5045190;28;20231;-82
2023/12/18 03:32:46;;;;;;;11.30;10.90;;;-0.30;99.90;;;;;;5045629;28;20259;-82
2023/12/18 03:35:14;;;;;;;11.33;10.93;;;-0.20;99.90;;;;;;5045887;28;20219;-82
2023/12/18 03:37:41;;;;;;;11.27;10.87;;;-0.30;99.90;;;;;;5044559;28;20240;-82
2023/12/18 03:40:09;;;;;;;11.70;11.30;;;-0.30;99.90;;;;;;5044965;28;20235;-81
2023/12/18 03:42:38;;;;;;;11.37;10.97;;;-0.20;99.90;;;;;;5044535;28;20227;-82
2023/12/18 03:45:07;;;;;;;11.17;10.77;;;-0.20;99.90;;;;;;5045087;28;20226;-82
2023/12/18 03:47:34;;;;;;;11.20;10.80;;;-0.20;99.90;;;;;;5044695;28;20259;-82
2023/12/18 03:50:03;;;;;;;11.33;10.93;;;-0.20;99.90;;;;;;5046811;28;20242;-83
2023/12/18 03:52:33;;;;;;;11.20;10.80;;;-0.10;99.90;;;;;;5045510;28;20243;-82
2023/12/18 03:55:01;;;;;;;11.30;10.90;;;-0.30;99.90;;;;;;5045532;28;20323;-83
2023/12/18 03:57:28;;;;;;;11.33;10.93;;;-0.30;99.90;;;;;;5044707;28;20239;-81
2023/12/18 03:59:57;;;;;;;11.30;10.90;;;-0.30;99.90;;;;;;5044628;28;20236;-81
2023/12/18 04:02:24;;;;;;;11.37;10.97;;;-0.20;99.90;;;;;;5044699;28;20231;-81
2023/12/18 04:04:52;;;;;;;11.00;10.60;;;-0.20;99.90;;;;;;5044745;28;20234;-81
2023/12/18 04:07:21;;;;;;;11.13;10.73;;;-0.20;99.90;;;;;;5044677;28;20290;-82
2023/12/18 04:09:48;;;;;;;11.27;10.87;;;-0.20;99.90;;;;;;5046193;28;20223;-82
2023/12/18 04:12:15;;;;;;;11.30;10.90;;;-0.20;99.90;;;;;;5045445;28;20787;-82
2023/12/18 04:14:43;;;;;;;11.20;10.80;;;-0.20;99.90;;;;;;5044441;28;20231;-82
2023/12/18 04:17:10;;;;;;;11.27;10.87;;;-0.20;99.90;;;;;;5044275;28;20238;-82
2023/12/18 04:19:38;;;;;;;11.37;10.97;;;-0.20;99.90;;;;;;5050145;28;20283;-82
2023/12/18 04:22:05;;;;;;;11.40;11.00;;;-0.30;99.90;;;;;;5049616;28;20218;-82
2023/12/18 04:24:34;;;;;;;11.47;11.07;;;-0.30;99.90;;;;;;5045620;28;20223;-82
2023/12/18 04:27:01;;;;;;;10.93;10.53;;;-0.30;99.90;;;;;;5042980;28;20243;-82
2023/12/18 04:29:28;;;;;;;11.20;10.80;;;-0.30;99.90;;;;;;5044141;28;20258;-82
2023/12/18 04:31:56;;;;;;;11.07;10.67;;;-0.30;99.90;;;;;;5043649;28;20235;-80
2023/12/18 04:34:23;;;;;;;11.00;10.60;;;-0.30;99.90;;;;;;5044210;28;20239;-80
2023/12/18 04:36:50;;;;;;;11.07;10.67;;;-0.30;99.90;;;;;;5044115;28;20242;-80
2023/12/18 04:39:17;;;;;;;10.90;10.50;;;-0.30;99.90;;;;;;5045167;28;20266;-80
2023/12/18 04:41:46;;;;;;;10.90;10.50;;;-0.30;99.90;;;;;;5044270;28;20247;-80
2023/12/18 04:44:13;;;;;;;10.57;10.27;;;-0.30;99.90;;;;;;5044667;28;20278;-82
2023/12/18 04:46:40;;;;;;;11.00;10.60;;;-0.40;99.90;;;;;;5043563;28;20290;-81
2023/12/18 04:49:09;;;;;;;10.90;10.50;;;-0.30;99.90;;;;;;5044203;28;20235;-82
2023/12/18 04:51:39;;;;;;;11.00;10.60;;;-0.30;99.90;;;;;;5043635;28;20226;-81
2023/12/18 04:54:06;;;;;;;10.83;10.47;;;-0.30;99.90;;;;;;5043381;28;20239;-81
2023/12/18 04:56:33;;;;;;;11.30;10.90;;;-0.30;99.90;;;;;;5043220;28;20238;-81
2023/12/18 04:59:02;;;;;;;10.97;10.60;;;-0.40;99.90;;;;;;5044153;28;20266;-81
2023/12/18 05:01:30;;;;;;;11.10;10.70;;;-0.30;99.90;;;;;;5044037;28;20234;-79
2023/12/18 05:03:57;;;;;;;11.20;10.80;;;-0.30;99.90;;;;;;5043837;28;20223;-81
2023/12/18 05:06:27;;;;;;;11.10;10.70;;;-0.30;99.90;;;;;;5044038;28;20223;-81
2023/12/18 05:08:55;;;;;;;11.30;10.90;;;-0.30;99.90;;;;;;5044276;28;20298;-82
2023/12/18 05:11:25;;;;;;;11.60;11.20;;;-0.30;99.90;;;;;;5043134;28;20223;-81
2023/12/18 05:13:53;;;;;;;11.47;11.07;;;-0.30;99.90;;;;;;5047028;28;20242;-81
2023/12/18 05:16:21;;;;;;;11.20;10.80;;;-0.30;99.90;;;;;;5059834;28;20207;-79
2023/12/18 05:18:49;;;;;;;11.13;10.73;;;-0.30;99.90;;;;;;5047429;28;20291;-82
2023/12/18 05:21:16;;;;;;;11.47;11.07;;;-0.30;99.90;;;;;;5043824;28;20239;-81
2023/12/18 05:23:45;;;;;;;11.80;11.40;;;-0.30;99.90;;;;;;5043277;28;20220;-82
2023/12/18 05:26:12;;;;;;;11.77;11.37;;;-0.40;99.90;;;;;;5044096;28;20234;-81
2023/12/18 05:28:40;;;;;;;11.50;11.10;;;-0.40;99.90;;;;;;5043263;28;20298;-81
2023/12/18 05:31:10;;;;;;;11.67;11.27;;;-0.40;99.90;;;;;;5043202;28;20298;-81
2023/12/18 05:33:39;;;;;;;11.50;11.10;;;-0.40;99.90;;;;;;5043648;28;20234;-81
2023/12/18 05:36:08;;;;;;;11.30;10.90;;;-0.50;99.90;;;;;;5043604;28;20231;-82
2023/12/18 05:38:35;;;;;;;11.37;10.97;;;-0.50;99.90;;;;;;5043851;28;20247;-81
2023/12/18 05:41:15;;;;;;;11.20;10.80;;;-0.50;99.90;;;;;;5061212;22;20234;-88
2023/12/18 05:43:45;;;;;;;11.30;10.90;;;-0.50;99.90;;;;;;5048833;28;20211;-87
2023/12/18 05:46:17;;;;;;;11.40;11.00;;;-0.50;99.90;;;;;;5049362;28;20243;-88
2023/12/18 05:48:54;;;;;;;11.20;10.80;;;-0.60;99.90;;;;;;5048407;28;20227;-87
2023/12/18 05:51:24;;;;;;;11.30;10.90;;;-0.60;99.90;;;;;;5049487;28;20230;-88
2023/12/18 05:53:51;;;;;;;11.27;10.87;;;-0.60;99.90;;;;;;5049012;28;20240;-90
2023/12/18 05:56:20;;;;;;;11.10;10.70;;;-0.70;99.90;;;;;;5049445;28;20239;-88
2023/12/18 05:58:51;;;;;;;10.57;10.27;;;-0.70;99.90;;;;;;5048457;28;20291;-88
2023/12/18 06:01:21;;;;;;;10.30;10.00;;;-0.70;99.90;;;;;;5049129;28;20253;-89
2023/12/18 06:06:38;;;;;;;10.23;9.93;;;-0.70;99.90;;;;;;5047727;28;20250;-89
2023/12/18 06:09:06;;;;;;;10.20;9.90;;;-0.60;99.90;;;;;;5077227;22;20265;-88
2023/12/18 06:11:38;;;;;;;10.47;10.17;;;-0.60;99.90;;;;;;5048953;28;20230;-88
2023/12/18 06:14:06;;;;;;;10.70;10.40;;;-0.60;99.90;;;;;;5049487;28;20237;-88
2023/12/18 06:16:36;;;;;;;10.53;10.23;;;-0.60;99.90;;;;;;5049404;28;20239;-88
2023/12/18 06:19:07;;;;;;;10.60;10.30;;;-0.70;99.90;;;;;;5048860;28;20241;-88
2023/12/18 06:24:32;;;;;;;10.40;10.10;;;-0.70;99.90;;;;;;5047782;28;20282;-88
2023/12/18 06:29:48;;;;;;;10.07;9.77;;;-0.70;99.90;;;;;;5055719;28;20256;-89
2023/12/18 06:32:18;;;;;;;10.80;10.50;;;-0.70;99.90;;;;;;5057026;28;20230;-87
2023/12/18 06:34:56;;;;;;;10.43;10.13;;;-0.70;99.90;;;;;;5050371;28;20226;-89
2023/12/18 06:37:24;;;;;;;11.07;10.67;;;-0.70;99.90;;;;;;5051983;28;20234;-89
2023/12/18 06:39:53;;;;;;;10.73;10.43;;;-0.70;99.90;;;;;;5048842;28;20232;-88
2023/12/18 06:42:23;;;;;;;10.93;10.53;;;-0.70;99.90;;;;;;5052011;28;20241;-88
2023/12/18 06:44:51;;;;;;;11.17;10.77;;;-0.70;99.90;;;;;;5052040;28;20223;-87
2023/12/18 06:47:30;;;;;;;11.33;10.93;;;-0.70;99.90;;;;;;5050847;28;20238;-88
2023/12/18 06:50:01;;;;;;;11.30;10.90;;;-0.70;99.90;;;;;;5032659;28;20262;-87
2023/12/18 06:52:29;;;;;;;11.43;11.03;;;-0.70;99.90;;;;;;5050977;28;20223;-87
2023/12/18 06:54:58;;;;;;;11.63;11.23;;;-0.70;99.90;;;;;;5051536;28;20239;-88
2023/12/18 06:57:37;;;;;;;11.60;11.20;;;-0.70;99.90;;;;;;5052551;28;20262;-88
2023/12/18 07:00:06;;;;;;;11.60;11.20;;;-0.60;99.90;;;;;;5033096;28;20231;-88
2023/12/18 07:02:35;;;;;;;11.50;11.10;;;-0.70;99.90;;;;;;5050944;28;20223;-87
2023/12/18 07:07:52;;;;;;;11.57;11.17;;;-0.70;99.90;;;;;;5050228;28;20243;-87
2023/12/18 07:10:21;;;;;;;11.57;11.17;;;-0.70;99.90;;;;;;5051145;28;20243;-87
2023/12/18 07:13:00;;;;;;;11.43;11.03;;;-0.70;99.90;;;;;;5051111;28;20293;-88
2023/12/18 07:15:29;;;;;;;11.57;11.17;;;-0.70;99.90;;;;;;5051326;28;20227;-86
2023/12/18 07:17:58;;;;;;;11.60;11.20;;;-0.60;99.90;;;;;;5051596;28;20490;-87
2023/12/18 07:29:36;;;;;;;11.27;10.87;;;-0.50;99.90;;;;;;5165736;27;20511;-89
2023/12/18 07:32:05;;;;;;;11.40;11.00;;;-0.40;99.90;;;;;;5147985;27;20255;-88
2023/12/18 07:34:33;;;;;;;11.30;10.90;;;-0.40;99.90;;;;;;5146308;27;20239;-86
2023/12/18 07:37:03;;;;;;;11.37;10.97;;;-0.50;99.90;;;;;;5148123;27;20305;-85
2023/12/18 07:39:31;;;;;;;11.47;11.07;;;-0.50;99.90;;;;;;5154167;27;20212;-84
2023/12/18 07:42:01;;;;;;;11.40;11.00;;;-0.50;99.90;;;;;;5154966;27;20254;-85
2023/12/18 07:44:29;;;;;;;11.50;11.10;;;-0.50;99.90;;;;;;5156286;27;20558;-85
2023/12/18 07:52:53;;;;;;;11.87;11.47;;;-0.40;99.90;;;;;;5065959;27;3640133;-86
2023/12/18 07:55:20;;;;;;;11.60;11.20;;;-0.30;99.90;;;;;;5167593;27;20227;-87
2023/12/18 07:57:50;;;;;;;11.57;11.17;;;-0.40;99.90;;;;;;5168107;27;20313;-86
2023/12/18 08:00:19;;;;;;;11.30;10.90;;;-0.30;99.90;;;;;;5159774;27;20212;-87
2023/12/18 08:08:41;;;;;;;11.50;11.10;;;-0.30;99.90;;;;;;5146067;27;20572;-86
2023/12/18 08:11:19;;;;;;;11.40;11.00;;;-0.30;99.90;;;;;;5126180;27;20227;-85
2023/12/18 08:13:51;;;;;;;11.30;10.90;;;-0.20;99.90;;;;;;5126565;27;20307;-88
2023/12/18 08:16:20;;;;;;;11.53;11.13;;;-0.20;99.90;;;;;;5126743;27;20262;-87
2023/12/18 08:18:48;;;;;;;11.73;11.33;;;-0.20;99.90;;;;;;5128172;27;20259;-87
2023/12/18 08:21:27;;;;;;;11.50;11.10;;;-0.20;99.90;;;;;;5126280;27;20232;-88
2023/12/18 08:23:58;;;;;;;11.50;11.10;;;-0.10;99.90;;;;;;5126736;27;20236;-89
2023/12/18 08:26:26;;;;;;;11.63;11.23;;;-0.10;99.90;;;;;;5127623;27;20246;-89
2023/12/18 08:28:54;;;;;;;11.60;11.20;;;-0.10;99.90;;;;;;5132684;27;20201;-84
2023/12/18 08:31:33;;;;;;;11.63;11.23;;;0.00;99.90;;;;;;5128147;27;20236;-84
2023/12/18 08:34:12;;;;;;;11.80;11.40;;;0.00;99.90;;;;;;5134972;27;20224;-86
2023/12/18 08:36:40;;;;;;;11.63;11.23;;;0.10;99.90;;;;;;5127978;27;20288;-89
2023/12/18 08:41:57;;;;;;;11.70;11.30;;;0.20;99.90;;;;;;5153315;22;20231;-88
2023/12/18 08:44:26;;;;;;;11.23;10.83;;;0.30;99.90;;;;;;5146521;27;20228;-86
2023/12/18 08:46:57;;;;;;;11.50;11.10;;;0.40;99.90;;;;;;5146324;27;20220;-89
2023/12/18 08:49:25;;;;;;;11.27;10.87;;;0.50;99.90;;;;;;5147013;27;20224;-86
2023/12/18 08:52:04;;;;;;;11.03;10.63;;;0.60;99.90;;;;;;5146863;27;20326;-86
2023/12/18 08:54:35;;;;;;;10.77;10.47;;;0.70;99.90;;;;;;5146456;27;20227;-85
2023/12/18 08:57:03;;;;;;;10.60;10.30;;;0.80;99.90;;;;;;5148058;27;20231;-84
2023/12/18 08:59:31;;;;;;;10.73;10.43;;;0.80;99.90;;;;;;5146440;27;20221;-85
2023/12/18 09:02:01;;;;;;;10.93;10.63;;;1.00;99.90;;;;;;5146526;27;20224;-90
2023/12/18 09:04:31;;;;;;;10.67;10.37;;;1.00;99.90;;;;;;5145603;27;20313;-87
2023/12/18 09:07:02;;;;;;;10.80;10.50;;;1.10;99.90;;;;;;5145036;27;20247;-88
2023/12/18 09:09:30;;;;;;;10.30;10.00;;;1.20;99.90;;;;;;5145749;27;20228;-86
2023/12/18 09:12:10;;;;;;;10.27;9.97;;;1.20;99.90;;;;;;5146135;27;20229;-87
2023/12/18 09:14:38;;;;;;;10.10;9.80;;;1.30;99.90;;;;;;5145868;27;20274;-88
2023/12/18 09:17:06;;;;;;;10.53;10.23;;;1.40;99.90;;;;;;5145341;27;20228;-87
2023/12/18 09:19:36;;;;;;;10.50;10.20;;;1.50;99.90;;;;;;5132784;27;20229;-87
2023/12/18 09:22:05;;;;;;;10.30;10.00;;;1.60;99.90;;;;;;5132497;28;20270;-87
2023/12/18 09:24:36;;;;;;;10.13;9.83;;;1.70;99.90;;;;;;5133265;28;20232;-88
2023/12/18 09:27:07;;;;;;;10.10;9.80;;;1.80;99.90;;;;;;5132449;28;20268;-88
2023/12/18 09:29:34;;;;;;;10.17;9.87;;;1.80;99.90;;;;;;5132567;28;20305;-89
2023/12/18 09:32:03;;;;;;;10.27;9.97;;;1.80;99.90;;;;;;5131852;28;20240;-88
2023/12/18 09:34:33;;;;;;;10.20;9.90;;;1.90;99.90;;;;;;5131609;28;20252;-88
2023/12/18 09:37:03;;;;;;;10.23;9.93;;;2.00;99.90;;;;;;5131816;28;20225;-88
2023/12/18 09:39:32;;;;;;;10.10;9.80;;;2.20;99.90;;;;;;5132065;28;20229;-88
2023/12/18 09:44:49;;;;;;;10.30;10.00;;;2.50;99.90;;;;;;5131624;28;20224;-87
2023/12/18 09:47:17;;;;;;;10.53;10.23;;;2.60;99.90;;;;;;5136214;28;20250;-87
2023/12/18 09:49:47;;;;;;;10.10;9.80;;;2.60;99.90;;;;;;5133213;28;20241;-88
2023/12/18 09:52:16;;;;;;;10.40;10.10;;;2.70;99.90;;;;;;5132378;28;20232;-88
2023/12/18 09:54:46;;;;;;;10.70;10.40;;;2.90;99.90;;;;;;5113771;28;20213;-88
2023/12/18 10:00:03;;;;;;;10.80;10.50;;;3.00;99.90;;;;;;5131345;28;20220;-87
2023/12/18 10:02:32;;;;;;;10.70;10.40;;;3.10;99.90;;;;;;5131988;28;20286;-88
2023/12/18 10:07:41;;;;;;;10.07;9.77;;;3.40;99.90;;;;;;5130940;28;20224;-87
2023/12/18 10:10:11;;;;;;;10.30;10.00;;;3.40;99.90;;;;;;5131532;28;20236;-88
2023/12/18 10:13:02;;;;;;;10.30;10.00;;;3.40;99.90;;;;;;5131886;28;20243;-87
2023/12/18 10:18:16;;;;;;;10.40;10.10;;;3.60;99.90;;;;;;5130308;28;20228;-88
2023/12/18 10:20:46;;;;;;;10.20;9.90;;;3.70;99.90;;;;;;5130816;28;20239;-88
2023/12/18 10:23:15;;;;;;;10.00;9.70;;;3.80;99.90;;;;;;5130875;28;20229;-87
2023/12/18 10:25:43;;;;;;;10.13;9.83;;;3.90;99.90;;;;;;5137952;27;20251;-89
2023/12/18 10:28:14;;;;;;;10.30;10.00;;;4.10;99.90;;;;;;5131224;28;20331;-83
2023/12/18 10:30:41;;;;;;;10.30;10.00;;;4.10;99.90;;;;;;5130731;27;20258;-85
2023/12/18 10:33:11;;;;;;;9.83;9.53;;;4.20;99.90;;;;;;5132112;28;20237;-85
2023/12/18 10:35:40;;;;;;;10.17;9.87;;;4.30;99.90;;;;;;5131921;28;20221;-84
2023/12/18 10:38:20;;;;;;;10.40;10.10;;;4.30;99.90;;;;;;5130869;28;20259;-85
2023/12/18 10:40:49;;;;;;;10.27;9.97;;;4.40;99.90;;;;;;5130708;28;20264;-85
2023/12/18 10:43:36;;;;;;;10.30;10.00;;;4.60;99.90;;;;;;5131798;28;20228;-85
2023/12/18 10:46:04;;;;;;;10.30;10.00;;;4.80;99.90;;;;;;5131532;28;20233;-85
2023/12/18 10:48:33;;;;;;;10.10;9.80;;;4.80;99.90;;;;;;5132149;28;20284;-87
2023/12/18 10:51:04;;;;;;;10.17;9.87;;;4.80;99.90;;;;;;5131228;28;20267;-85
2023/12/18 10:53:36;;;;;;;10.40;10.10;;;4.80;99.90;;;;;;5131482;28;20225;-84
2023/12/18 10:56:11;;;;;;;10.50;10.20;;;4.90;99.90;;;;;;5113247;27;20245;-86
2023/12/18 11:01:28;;;;;;;10.60;10.30;;;5.00;99.90;;;;;;5112957;28;20243;-85
2023/12/18 11:03:57;;;;;;;10.50;10.20;;;5.00;99.90;;;;;;5116657;28;20224;-84
2023/12/18 11:06:27;;;;;;;10.30;10.00;;;5.00;99.90;;;;;;5115603;28;20222;-84
2023/12/18 11:08:56;;;;;;;10.20;9.90;;;5.10;99.90;;;;;;5114140;28;20244;-83
2023/12/18 11:11:26;;;;;;;10.20;9.90;;;5.40;99.90;;;;;;5114417;28;20276;-82
2023/12/18 11:14:12;;;;;;;10.27;9.97;;;5.60;99.90;;;;;;5113482;28;20234;-82
2023/12/18 11:17:09;;;;;;;10.40;10.10;;;6.00;99.90;;;;;;5112833;28;20217;-85
2023/12/18 11:19:46;;;;;;;10.20;9.90;;;6.30;99.90;;;;;;5112447;28;20221;-84
2023/12/18 11:22:33;;;;;;;10.20;9.90;;;6.50;99.90;;;;;;5111216;28;20259;-83
2023/12/18 11:25:12;;;;;;;10.30;10.00;;;6.70;99.90;;;;;;5112100;28;20229;-84
2023/12/18 11:27:43;;;;;;;10.60;10.30;;;7.10;99.90;;;;;;5111414;28;20243;-83
2023/12/18 11:30:28;;;;;;;10.30;10.00;;;7.50;99.90;;;;;;5111984;28;20224;-84
2023/12/18 11:33:00;;;;;;;10.10;9.80;;;7.90;99.90;;;;;;5111783;28;20225;-85
2023/12/18 11:35:30;;;;;;;10.07;9.77;;;8.20;99.90;;;;;;5112129;28;20275;-84
2023/12/18 11:38:06;;;;;;;10.50;10.20;;;8.40;99.90;;;;;;5111547;28;20297;-83
2023/12/18 11:40:46;;;;;;;10.47;10.17;;;8.50;99.90;;;;;;5135936;22;20214;-82
2023/12/18 11:43:38;;;;;;;10.30;10.00;;;8.60;99.90;;;;;;5132524;27;20228;-83
2023/12/18 11:46:08;;;;;;;10.50;10.20;;;8.50;99.90;;;;;;5125983;28;20229;-83
2023/12/18 11:48:37;;;;;;;10.50;10.20;;;8.70;99.90;;;;;;5116621;28;20237;-83
2023/12/18 11:51:06;;;;;;;10.60;10.30;;;8.80;99.90;;;;;;5120241;28;20233;-83
2023/12/18 11:53:35;;;;;;;10.40;10.10;;;8.60;99.90;;;;;;5105284;28;20230;-83
2023/12/18 11:56:10;;;;;;;10.00;9.70;;;8.40;99.90;;;;;;5107625;28;20234;-83
2023/12/18 11:58:41;;;;;;;10.10;9.80;;;8.10;99.90;;;;;;5107521;28;20240;-84
2023/12/18 12:01:10;;;;;;;10.40;10.10;;;8.10;99.90;;;;;;5106940;28;20283;-84
2023/12/18 12:03:38;;;;;;;10.27;9.97;;;8.10;99.90;;;;;;5103473;28;20233;-83
2023/12/18 12:06:07;;;;;;;10.30;10.00;;;8.20;99.90;;;;;;5103859;28;20298;-82
2023/12/18 12:08:36;;;;;;;10.30;10.00;;;8.20;99.90;;;;;;5103718;28;20226;-83
2023/12/18 12:11:09;;;;;;;10.70;10.40;;;8.50;99.90;;;;;;5110151;28;20202;-83
2023/12/18 12:13:37;;;;;;;10.73;10.43;;;8.90;99.90;;;;;;5105057;28;20229;-83
2023/12/18 12:16:09;;;;;;;10.70;10.40;;;9.10;99.90;;;;;;5103707;28;20225;-83
2023/12/18 12:18:46;;;;;;;10.30;10.00;;;9.30;99.90;;;;;;5103479;28;20234;-86
2023/12/18 12:21:17;;;;;;;10.73;10.43;;;9.50;99.90;;;;;;5104608;28;20229;-84
2023/12/18 12:23:48;;;;;;;10.27;9.97;;;9.90;99.90;;;;;;5086115;28;20237;-85
2023/12/18 12:26:17;;;;;;;10.23;9.93;;;10.30;99.90;;;;;;5110538;28;20248;-82
2023/12/18 12:28:56;;;;;;;10.47;10.17;;;10.30;99.90;;;;;;5110512;28;20226;-83
2023/12/18 12:31:26;;;;;;;10.90;10.60;;;10.40;99.90;;;;;;5111390;27;20221;-84
2023/12/18 12:33:54;;;;;;;10.60;10.30;;;10.70;99.90;;;;;;5114357;28;20256;-85
2023/12/18 12:36:22;;;;;;;10.20;9.90;;;11.10;99.90;;;;;;5105986;28;20217;-84
2023/12/18 12:38:50;;;;;;;10.50;10.20;;;11.40;99.90;;;;;;5104517;28;20241;-84
2023/12/18 12:41:18;;;;;;;10.57;10.27;;;11.50;99.90;;;;;;5104545;28;20298;-85
2023/12/18 12:43:51;;;;;;;10.90;10.60;;;11.70;99.90;;;;;;5104868;28;20293;-86
2023/12/18 12:46:19;;;;;;;10.90;10.60;;;11.90;99.90;;;;;;5102539;28;20240;-86
2023/12/18 12:48:50;;;;;;;11.00;10.70;;;12.10;99.90;;;;;;5104463;28;20217;-85
2023/12/18 12:51:18;;;;;;;11.00;10.70;;;12.00;99.90;;;;;;5104924;28;20225;-84
2023/12/18 12:53:46;;;;;;;11.17;10.77;;;12.10;99.90;;;;;;5105779;28;20218;-86
2023/12/18 12:56:13;;;;;;;10.80;10.50;;;12.20;99.90;;;;;;5106908;28;20240;-83
2023/12/18 12:58:56;;;;;;;10.73;10.43;;;12.30;99.90;;;;;;5107875;28;20233;-85
2023/12/18 13:02:19;;;;;;;11.13;10.73;;;12.40;99.90;;;;;;5106832;28;20233;-85
2023/12/18 13:05:03;;;;;;;10.40;10.10;;;12.40;99.90;;;;;;5053797;28;20298;-86
2023/12/18 13:07:36;;;;;;;10.70;10.40;;;12.20;99.90;;;;;;5057649;28;20226;-87
2023/12/18 13:10:04;;;;;;;10.70;10.40;;;12.30;99.90;;;;;;5095374;28;20241;-83
2023/12/18 13:12:32;;;;;;;10.60;10.30;;;12.30;99.90;;;;;;5106738;28;20217;-86
2023/12/18 13:14:58;;;;;;;10.37;10.07;;;12.20;99.90;;;;;;5110616;28;20230;-85
2023/12/18 13:17:39;;;;;;;10.60;10.30;;;12.10;99.90;;;;;;5112052;28;20284;-86
2023/12/18 13:20:18;;;;;;;10.43;10.13;;;11.80;99.90;;;;;;5116595;28;20231;-84
2023/12/18 13:23:02;;;;;;;10.60;10.30;;;11.70;99.90;;;;;;5111966;28;20221;-84
2023/12/18 13:25:31;;;;;;;10.77;10.47;;;11.60;99.90;;;;;;5108283;28;20230;-84
2023/12/18 13:28:20;;;;;;;10.57;10.27;;;11.60;99.90;;;;;;5108969;28;20230;-85
2023/12/18 13:30:51;;;;;;;10.63;10.33;;;11.40;99.90;;;;;;5110640;28;20222;-86
2023/12/18 13:34:05;;;;;;;;;;;;;;;;;;;;;
2023/12/18 13:36:47;;;;;;;10.10;9.80;;;11.70;99.90;;;;;;5112038;28;20222;-85